Portada
METAR-TAF:

METAR-TAF

Aeropuertos :

Chengdu, China

Aeropuerto Internacional de Chengdú-Shuangliu

latitud: 30-40N, longitud: 104-01E, altitud: 508 m

Observación

El informe se hizo hace 47 minutos, a las 20:00 UTC
Viento calma
Temperatura 26°C
Humedad 94%
Presión 1005 hPa
Visibilidad 10 km o más
sin nubes por debajo de 1500 m y sin presencia de cumulonimbus.

METAR: ZUUU 242000Z 00000MPS CAVOK 26/25 Q1005 BECMG TL2050 -TSRA FEW030CB

Hora: 04:47 (20:47 UTC)

Pronóstico

El informe se hizo hace 6 horas y 36 minutos, a las 14:11 UTC
Pronóstico válido del 24 a las 18 UTC al 25 a las 18 UTC
Viento 6 kt del sur
Visibilidad: 6000 m
Nubes dispersas a una altura de 5000 ft
Temporalmente
del 24 a las 18 UTC al 24 a las 22 UTC
Escasas nubes a una altura de 3000 ft, Cumulonimbus.
Nubes dispersas a una altura de 3000 ft
tormenta, lluvia ligera

TAF: ZUUU 241411Z 2418/2518 17003MPS 6000 SCT050 TX35/2509Z TN23/2422Z TEMPO 2418/2422 -TSRA FEW030CB SCT030

Observaciones y pronósticos meteorológicos de más de 4000 aeropuertos (mensajes METAR y TAF).

Los puntos amarillos y rojos representan las estaciones disponibles.

Ponga el ratón en el punto deseado para ver el nombre de la estación.

Haga clic para ver las observaciones y los pronósticos meteorológicos.

Para cambiar el mapa : haga clic en los botones verdes con una cruz de color negro para hacer un zoom, en el botón verde con un guión para alejar o en las flechas verdes para mapas adyacentes.


METAR-TAF: